sensor_id;sensor_type;location;lat;lon;timestamp;pressure;altitude;pressure_sealevel;temperature;humidity
53960;BME280;39866;48.638;-2.020;2023-03-03T00:00:55;102221.50;;;10.86;54.47
53960;BME280;39866;48.638;-2.020;2023-03-03T00:03:24;102226.75;;;10.97;54.04
53960;BME280;39866;48.638;-2.020;2023-03-03T00:05:50;102217.81;;;11.04;53.99
53960;BME280;39866;48.638;-2.020;2023-03-03T00:08:17;102217.03;;;10.88;53.89
53960;BME280;39866;48.638;-2.020;2023-03-03T00:10:43;102220.47;;;11.06;54.12
53960;BME280;39866;48.638;-2.020;2023-03-03T00:13:15;102222.13;;;11.22;53.71
53960;BME280;39866;48.638;-2.020;2023-03-03T00:15:40;102224.78;;;11.22;53.96
53960;BME280;39866;48.638;-2.020;2023-03-03T00:18:17;102226.56;;;11.25;53.76
53960;BME280;39866;48.638;-2.020;2023-03-03T00:20:57;102223.06;;;11.16;53.65
53960;BME280;39866;48.638;-2.020;2023-03-03T00:23:36;102215.94;;;11.17;53.76
53960;BME280;39866;48.638;-2.020;2023-03-03T00:26:12;102226.63;;;11.14;53.77
53960;BME280;39866;48.638;-2.020;2023-03-03T00:28:45;102219.78;;;10.78;54.63
53960;BME280;39866;48.638;-2.020;2023-03-03T00:31:16;102228.56;;;10.95;54.57
53960;BME280;39866;48.638;-2.020;2023-03-03T00:33:47;102221.47;;;10.91;54.59
53960;BME280;39866;48.638;-2.020;2023-03-03T00:38:41;102212.34;;;11.24;53.75
53960;BME280;39866;48.638;-2.020;2023-03-03T00:41:27;102227.59;;;11.04;53.86
53960;BME280;39866;48.638;-2.020;2023-03-03T00:43:53;102224.97;;;10.98;54.68
53960;BME280;39866;48.638;-2.020;2023-03-03T00:46:20;102219.56;;;11.11;54.46
53960;BME280;39866;48.638;-2.020;2023-03-03T00:48:47;102230.22;;;11.08;54.21
53960;BME280;39866;48.638;-2.020;2023-03-03T00:53:44;102226.63;;;11.19;54.23
53960;BME280;39866;48.638;-2.020;2023-03-03T00:56:09;102223.84;;;11.29;53.95
53960;BME280;39866;48.638;-2.020;2023-03-03T00:58:35;102222.19;;;11.13;54.32
53960;BME280;39866;48.638;-2.020;2023-03-03T01:01:00;102230.19;;;11.13;54.27
53960;BME280;39866;48.638;-2.020;2023-03-03T01:03:26;102222.09;;;11.25;53.69
53960;BME280;39866;48.638;-2.020;2023-03-03T01:05:52;102226.72;;;11.03;54.20
53960;BME280;39866;48.638;-2.020;2023-03-03T01:08:18;102230.31;;;10.99;54.63
53960;BME280;39866;48.638;-2.020;2023-03-03T01:11:06;102223.97;;;11.15;54.47
53960;BME280;39866;48.638;-2.020;2023-03-03T01:13:34;102222.06;;;11.30;54.16
53960;BME280;39866;48.638;-2.020;2023-03-03T01:16:01;102215.88;;;11.26;54.11
53960;BME280;39866;48.638;-2.020;2023-03-03T01:18:28;102229.28;;;11.14;54.41
53960;BME280;39866;48.638;-2.020;2023-03-03T01:20:54;102222.19;;;11.16;54.46
53960;BME280;39866;48.638;-2.020;2023-03-03T01:23:19;102221.28;;;11.17;54.35
53960;BME280;39866;48.638;-2.020;2023-03-03T01:25:44;102218.53;;;11.26;54.15
53960;BME280;39866;48.638;-2.020;2023-03-03T01:28:10;102220.53;;;10.97;54.46
53960;BME280;39866;48.638;-2.020;2023-03-03T01:30:35;102213.47;;;10.94;54.93
53960;BME280;39866;48.638;-2.020;2023-03-03T01:33:01;102213.50;;;10.86;54.91
53960;BME280;39866;48.638;-2.020;2023-03-03T01:35:26;102219.72;;;10.90;55.20
53960;BME280;39866;48.638;-2.020;2023-03-03T01:37:51;102210.91;;;10.73;55.53
53960;BME280;39866;48.638;-2.020;2023-03-03T01:40:23;102216.94;;;11.04;54.81
53960;BME280;39866;48.638;-2.020;2023-03-03T01:42:48;102214.19;;;11.16;54.67
53960;BME280;39866;48.638;-2.020;2023-03-03T01:45:21;102213.22;;;11.25;54.71
53960;BME280;39866;48.638;-2.020;2023-03-03T01:47:51;102213.53;;;10.82;55.27
53960;BME280;39866;48.638;-2.020;2023-03-03T01:50:47;102213.53;;;10.83;55.71
53960;BME280;39866;48.638;-2.020;2023-03-03T01:53:15;102207.28;;;10.87;55.58
53960;BME280;39866;48.638;-2.020;2023-03-03T01:55:41;102202.81;;;10.89;55.48
53960;BME280;39866;48.638;-2.020;2023-03-03T01:58:11;102213.56;;;10.73;55.94
53960;BME280;39866;48.638;-2.020;2023-03-03T02:00:40;102210.09;;;10.61;56.32
53960;BME280;39866;48.638;-2.020;2023-03-03T02:03:06;102201.22;;;10.56;56.32
53960;BME280;39866;48.638;-2.020;2023-03-03T02:05:32;102182.53;;;10.70;55.94
53960;BME280;39866;48.638;-2.020;2023-03-03T02:07:59;102195.88;;;10.61;56.52
53960;BME280;39866;48.638;-2.020;2023-03-03T02:10:25;102199.38;;;10.72;56.31
53960;BME280;39866;48.638;-2.020;2023-03-03T02:12:53;102201.97;;;10.81;55.88
53960;BME280;39866;48.638;-2.020;2023-03-03T02:15:28;102200.09;;;10.99;55.52
53960;BME280;39866;48.638;-2.020;2023-03-03T02:17:56;102204.53;;;11.00;55.74
53960;BME280;39866;48.638;-2.020;2023-03-03T02:23:07;102192.03;;;11.08;55.70
53960;BME280;39866;48.638;-2.020;2023-03-03T02:28:28;102193.94;;;10.90;56.20
53960;BME280;39866;48.638;-2.020;2023-03-03T02:30:54;102198.25;;;11.07;55.80
53960;BME280;39866;48.638;-2.020;2023-03-03T02:33:20;102192.22;;;10.80;56.13
53960;BME280;39866;48.638;-2.020;2023-03-03T02:35:46;102187.00;;;10.63;56.73
53960;BME280;39866;48.638;-2.020;2023-03-03T02:38:28;102186.97;;;10.68;56.55
53960;BME280;39866;48.638;-2.020;2023-03-03T02:43:40;102188.44;;;11.12;55.57
53960;BME280;39866;48.638;-2.020;2023-03-03T02:46:08;102187.56;;;11.10;55.81
53960;BME280;39866;48.638;-2.020;2023-03-03T02:48:34;102184.97;;;11.01;56.05
53960;BME280;39866;48.638;-2.020;2023-03-03T02:50:59;102184.94;;;11.07;55.62
53960;BME280;39866;48.638;-2.020;2023-03-03T02:53:25;102184.88;;;11.10;55.99
53960;BME280;39866;48.638;-2.020;2023-03-03T02:55:50;102182.16;;;11.18;55.43
53960;BME280;39866;48.638;-2.020;2023-03-03T02:58:15;102183.81;;;11.35;55.51
53960;BME280;39866;48.638;-2.020;2023-03-03T03:00:41;102188.38;;;11.20;55.52
53960;BME280;39866;48.638;-2.020;2023-03-03T03:03:06;102185.78;;;11.12;55.10
53960;BME280;39866;48.638;-2.020;2023-03-03T03:05:31;102187.44;;;11.22;55.18
53960;BME280;39866;48.638;-2.020;2023-03-03T03:07:57;102190.28;;;11.04;55.30
53960;BME280;39866;48.638;-2.020;2023-03-03T03:10:22;102181.56;;;10.80;56.29
53960;BME280;39866;48.638;-2.020;2023-03-03T03:12:47;102182.44;;;10.82;55.89
53960;BME280;39866;48.638;-2.020;2023-03-03T03:15:13;102180.59;;;10.89;55.74
53960;BME280;39866;48.638;-2.020;2023-03-03T03:17:40;102180.56;;;10.94;55.78
53960;BME280;39866;48.638;-2.020;2023-03-03T03:20:05;102184.16;;;10.94;55.69
53960;BME280;39866;48.638;-2.020;2023-03-03T03:22:31;102186.88;;;10.83;56.19
53960;BME280;39866;48.638;-2.020;2023-03-03T03:24:56;102185.16;;;10.73;55.83
53960;BME280;39866;48.638;-2.020;2023-03-03T03:27:22;102190.41;;;10.90;55.48
53960;BME280;39866;48.638;-2.020;2023-03-03T03:29:47;102192.25;;;10.76;55.54
53960;BME280;39866;48.638;-2.020;2023-03-03T03:32:13;102191.38;;;10.74;55.69
53960;BME280;39866;48.638;-2.020;2023-03-03T03:34:38;102187.88;;;10.65;55.88
53960;BME280;39866;48.638;-2.020;2023-03-03T03:37:03;102201.41;;;10.12;56.99
53960;BME280;39866;48.638;-2.020;2023-03-03T03:39:29;102188.84;;;10.51;56.49
53960;BME280;39866;48.638;-2.020;2023-03-03T03:41:54;102189.72;;;10.53;56.00
53960;BME280;39866;48.638;-2.020;2023-03-03T03:44:19;102189.63;;;10.65;55.97
53960;BME280;39866;48.638;-2.020;2023-03-03T03:46:45;102189.66;;;10.63;55.85
53960;BME280;39866;48.638;-2.020;2023-03-03T03:49:10;102187.88;;;10.67;55.57
53960;BME280;39866;48.638;-2.020;2023-03-03T03:51:36;102199.56;;;10.35;56.25
53960;BME280;39866;48.638;-2.020;2023-03-03T03:54:05;102198.53;;;10.64;55.50
53960;BME280;39866;48.638;-2.020;2023-03-03T03:56:30;102205.72;;;10.47;56.19
53960;BME280;39866;48.638;-2.020;2023-03-03T03:58:56;102195.09;;;10.42;56.55
53960;BME280;39866;48.638;-2.020;2023-03-03T04:01:21;102195.94;;;10.53;56.03
53960;BME280;39866;48.638;-2.020;2023-03-03T04:03:46;102190.66;;;10.43;56.72
53960;BME280;39866;48.638;-2.020;2023-03-03T04:06:13;102209.34;;;10.35;56.75
53960;BME280;39866;48.638;-2.020;2023-03-03T04:08:38;102205.63;;;10.65;56.73
53960;BME280;39866;48.638;-2.020;2023-03-03T04:11:03;102208.41;;;10.45;56.71
53960;BME280;39866;48.638;-2.020;2023-03-03T04:13:29;102198.59;;;10.55;56.94
53960;BME280;39866;48.638;-2.020;2023-03-03T04:15:56;102206.50;;;10.70;56.50
53960;BME280;39866;48.638;-2.020;2023-03-03T04:18:21;102211.78;;;10.76;56.63
53960;BME280;39866;48.638;-2.020;2023-03-03T04:20:46;102202.94;;;10.71;56.23
53960;BME280;39866;48.638;-2.020;2023-03-03T04:23:12;102213.63;;;10.70;56.66
53960;BME280;39866;48.638;-2.020;2023-03-03T04:25:39;102201.19;;;10.61;56.77
53960;BME280;39866;48.638;-2.020;2023-03-03T04:28:04;102220.81;;;10.49;56.72
53960;BME280;39866;48.638;-2.020;2023-03-03T04:30:30;102219.00;;;10.59;56.91
53960;BME280;39866;48.638;-2.020;2023-03-03T04:32:55;102208.28;;;10.68;56.47
53960;BME280;39866;48.638;-2.020;2023-03-03T04:35:21;102218.88;;;10.79;56.66
53960;BME280;39866;48.638;-2.020;2023-03-03T04:37:46;102202.97;;;10.65;56.70
53960;BME280;39866;48.638;-2.020;2023-03-03T04:40:12;102205.66;;;10.60;57.09
53960;BME280;39866;48.638;-2.020;2023-03-03T04:42:37;102214.38;;;10.85;56.78
53960;BME280;39866;48.638;-2.020;2023-03-03T04:45:03;102207.38;;;10.72;57.34
53960;BME280;39866;48.638;-2.020;2023-03-03T04:47:29;102192.22;;;10.82;56.92
53960;BME280;39866;48.638;-2.020;2023-03-03T04:49:56;102213.44;;;10.99;56.77
53960;BME280;39866;48.638;-2.020;2023-03-03T04:52:21;102210.78;;;10.96;56.96
53960;BME280;39866;48.638;-2.020;2023-03-03T04:54:47;102213.41;;;11.00;56.94
53960;BME280;39866;48.638;-2.020;2023-03-03T04:57:12;102217.03;;;10.88;57.13
53960;BME280;39866;48.638;-2.020;2023-03-03T04:59:37;102213.44;;;10.96;56.91
53960;BME280;39866;48.638;-2.020;2023-03-03T05:02:03;102209.88;;;10.98;56.64
53960;BME280;39866;48.638;-2.020;2023-03-03T05:04:32;102223.22;;;10.94;56.86
53960;BME280;39866;48.638;-2.020;2023-03-03T05:06:57;102209.03;;;10.88;57.00
53960;BME280;39866;48.638;-2.020;2023-03-03T05:09:23;102212.63;;;10.83;56.82
53960;BME280;39866;48.638;-2.020;2023-03-03T05:11:48;102211.56;;;11.11;56.41
53960;BME280;39866;48.638;-2.020;2023-03-03T05:14:13;102213.19;;;11.26;55.91
53960;BME280;39866;48.638;-2.020;2023-03-03T05:16:39;102211.53;;;11.10;55.54
53960;BME280;39866;48.638;-2.020;2023-03-03T05:19:04;102209.63;;;11.29;55.84
53960;BME280;39866;48.638;-2.020;2023-03-03T05:21:30;102213.09;;;11.38;55.61
53960;BME280;39866;48.638;-2.020;2023-03-03T05:23:55;102208.69;;;11.36;55.48
53960;BME280;39866;48.638;-2.020;2023-03-03T05:26:20;102218.44;;;11.38;55.69
53960;BME280;39866;48.638;-2.020;2023-03-03T05:28:46;102215.75;;;11.38;55.73
53960;BME280;39866;48.638;-2.020;2023-03-03T05:31:11;102212.31;;;11.29;55.88
53960;BME280;39866;48.638;-2.020;2023-03-03T05:33:37;102218.44;;;11.40;56.07
53960;BME280;39866;48.638;-2.020;2023-03-03T05:36:02;102207.72;;;11.45;56.01
53960;BME280;39866;48.638;-2.020;2023-03-03T05:38:28;102214.84;;;11.43;55.70
53960;BME280;39866;48.638;-2.020;2023-03-03T05:40:53;102213.19;;;11.26;56.67
53960;BME280;39866;48.638;-2.020;2023-03-03T05:43:19;102212.56;;;10.92;57.21
53960;BME280;39866;48.638;-2.020;2023-03-03T05:45:45;102214.38;;;10.90;57.77
53960;BME280;39866;48.638;-2.020;2023-03-03T05:48:10;102208.97;;;10.98;57.42
53960;BME280;39866;48.638;-2.020;2023-03-03T05:50:37;102212.50;;;11.01;57.15
53960;BME280;39866;48.638;-2.020;2023-03-03T05:53:03;102217.88;;;10.95;57.61
53960;BME280;39866;48.638;-2.020;2023-03-03T05:55:28;102225.78;;;11.10;57.34
53960;BME280;39866;48.638;-2.020;2023-03-03T05:57:54;102222.28;;;11.01;56.93
53960;BME280;39866;48.638;-2.020;2023-03-03T06:00:20;102220.59;;;10.87;57.00
53960;BME280;39866;48.638;-2.020;2023-03-03T06:02:45;102222.41;;;10.82;57.19
53960;BME280;39866;48.638;-2.020;2023-03-03T06:05:11;102226.00;;;10.78;57.32
53960;BME280;39866;48.638;-2.020;2023-03-03T06:07:36;102224.22;;;10.76;57.39
53960;BME280;39866;48.638;-2.020;2023-03-03T06:10:03;102223.25;;;10.90;57.16
53960;BME280;39866;48.638;-2.020;2023-03-03T06:12:28;102227.78;;;10.75;57.45
53960;BME280;39866;48.638;-2.020;2023-03-03T06:14:54;102230.41;;;10.82;57.10
53960;BME280;39866;48.638;-2.020;2023-03-03T06:17:19;102217.19;;;10.61;57.59
53960;BME280;39866;48.638;-2.020;2023-03-03T06:19:44;102221.59;;;10.68;57.59
53960;BME280;39866;48.638;-2.020;2023-03-03T06:22:11;102225.94;;;10.84;57.48
53960;BME280;39866;48.638;-2.020;2023-03-03T06:24:37;102220.69;;;10.72;58.02
53960;BME280;39866;48.638;-2.020;2023-03-03T06:27:02;102226.03;;;10.68;57.62
53960;BME280;39866;48.638;-2.020;2023-03-03T06:29:28;102226.94;;;10.70;57.56
53960;BME280;39866;48.638;-2.020;2023-03-03T06:31:53;102234.97;;;10.62;57.62
53960;BME280;39866;48.638;-2.020;2023-03-03T06:34:19;102224.34;;;10.57;57.87
53960;BME280;39866;48.638;-2.020;2023-03-03T06:36:44;102233.06;;;10.84;57.12
53960;BME280;39866;48.638;-2.020;2023-03-03T06:39:10;102235.72;;;10.87;57.18
53960;BME280;39866;48.638;-2.020;2023-03-03T06:41:36;102229.44;;;10.96;56.59
53960;BME280;39866;48.638;-2.020;2023-03-03T06:44:02;102237.44;;;10.94;56.83
53960;BME280;39866;48.638;-2.020;2023-03-03T06:46:27;102242.63;;;11.12;56.34
53960;BME280;39866;48.638;-2.020;2023-03-03T06:48:53;102238.34;;;10.85;57.49
53960;BME280;39866;48.638;-2.020;2023-03-03T06:51:22;102243.59;;;10.98;56.64
53960;BME280;39866;48.638;-2.020;2023-03-03T06:53:54;102241.00;;;10.95;56.64
53960;BME280;39866;48.638;-2.020;2023-03-03T06:56:23;102244.66;;;10.78;57.42
53960;BME280;39866;48.638;-2.020;2023-03-03T06:58:48;102250.00;;;10.69;57.98
53960;BME280;39866;48.638;-2.020;2023-03-03T07:01:15;102257.00;;;10.88;57.48
53960;BME280;39866;48.638;-2.020;2023-03-03T07:03:41;102261.41;;;10.99;57.05
53960;BME280;39866;48.638;-2.020;2023-03-03T07:06:24;102259.59;;;11.04;57.08
53960;BME280;39866;48.638;-2.020;2023-03-03T07:08:51;102267.66;;;10.85;56.93
53960;BME280;39866;48.638;-2.020;2023-03-03T07:11:19;102271.31;;;10.71;57.57
53960;BME280;39866;48.638;-2.020;2023-03-03T07:13:53;102277.53;;;10.65;57.77
53960;BME280;39866;48.638;-2.020;2023-03-03T07:16:21;102273.88;;;10.89;57.44
53960;BME280;39866;48.638;-2.020;2023-03-03T07:18:53;102270.31;;;10.95;57.18
53960;BME280;39866;48.638;-2.020;2023-03-03T07:23:49;102280.00;;;11.02;57.11
53960;BME280;39866;48.638;-2.020;2023-03-03T07:26:17;102277.34;;;11.02;56.99
53960;BME280;39866;48.638;-2.020;2023-03-03T07:28:50;102289.13;;;10.56;57.44
53960;BME280;39866;48.638;-2.020;2023-03-03T07:31:34;102294.38;;;10.73;57.56
53960;BME280;39866;48.638;-2.020;2023-03-03T07:34:04;102304.16;;;10.76;57.22
53960;BME280;39866;48.638;-2.020;2023-03-03T07:36:39;102305.09;;;10.61;57.56
53960;BME280;39866;48.638;-2.020;2023-03-03T07:39:35;102301.44;;;10.80;56.94
53960;BME280;39866;48.638;-2.020;2023-03-03T07:44:44;102307.69;;;10.76;57.07
53960;BME280;39866;48.638;-2.020;2023-03-03T07:47:22;102308.53;;;10.90;56.77
53960;BME280;39866;48.638;-2.020;2023-03-03T07:49:49;102310.31;;;10.90;56.86
53960;BME280;39866;48.638;-2.020;2023-03-03T07:52:33;102309.56;;;10.54;57.87
53960;BME280;39866;48.638;-2.020;2023-03-03T07:55:22;102304.09;;;10.85;56.99
53960;BME280;39866;48.638;-2.020;2023-03-03T07:57:51;102314.75;;;10.86;56.64
53960;BME280;39866;48.638;-2.020;2023-03-03T08:10:34;102324.44;;;11.04;56.53
53960;BME280;39866;48.638;-2.020;2023-03-03T08:13:08;102334.22;;;11.04;56.37
53960;BME280;39866;48.638;-2.020;2023-03-03T08:15:37;102328.13;;;10.79;57.03
53960;BME280;39866;48.638;-2.020;2023-03-03T08:18:18;102334.41;;;10.58;56.85
53960;BME280;39866;48.638;-2.020;2023-03-03T08:20:47;102339.72;;;10.62;56.21
53960;BME280;39866;48.638;-2.020;2023-03-03T08:23:14;102344.94;;;10.95;55.83
53960;BME280;39866;48.638;-2.020;2023-03-03T08:25:40;102342.28;;;10.85;56.01
53960;BME280;39866;48.638;-2.020;2023-03-03T08:28:07;102344.94;;;10.95;55.50
53960;BME280;39866;48.638;-2.020;2023-03-03T08:30:32;102352.94;;;10.91;55.12
53960;BME280;39866;48.638;-2.020;2023-03-03T08:32:58;102345.91;;;10.69;55.27
53960;BME280;39866;48.638;-2.020;2023-03-03T08:35:23;102355.66;;;10.72;54.91
53960;BME280;39866;48.638;-2.020;2023-03-03T08:37:48;102356.44;;;10.97;54.75
53960;BME280;39866;48.638;-2.020;2023-03-03T08:40:14;102359.06;;;11.06;54.37
53960;BME280;39866;48.638;-2.020;2023-03-03T08:42:39;102366.19;;;11.04;54.32
53960;BME280;39866;48.638;-2.020;2023-03-03T08:45:05;102366.25;;;10.91;54.11
53960;BME280;39866;48.638;-2.020;2023-03-03T08:47:30;102356.44;;;10.97;54.08
53960;BME280;39866;48.638;-2.020;2023-03-03T08:49:56;102366.22;;;10.98;54.08
53960;BME280;39866;48.638;-2.020;2023-03-03T08:52:21;102371.47;;;11.10;53.86
53960;BME280;39866;48.638;-2.020;2023-03-03T08:54:46;102375.91;;;11.14;53.85
53960;BME280;39866;48.638;-2.020;2023-03-03T08:57:12;102367.13;;;10.94;53.68
53960;BME280;39866;48.638;-2.020;2023-03-03T08:59:37;102367.06;;;11.10;53.43
53960;BME280;39866;48.638;-2.020;2023-03-03T09:02:04;102375.91;;;11.17;53.19
53960;BME280;39866;48.638;-2.020;2023-03-03T09:04:31;102368.16;;;10.56;53.95
53960;BME280;39866;48.638;-2.020;2023-03-03T09:06:56;102383.16;;;10.77;54.08
53960;BME280;39866;48.638;-2.020;2023-03-03T09:09:22;102373.28;;;11.05;53.79
53960;BME280;39866;48.638;-2.020;2023-03-03T09:11:47;102374.19;;;11.05;53.50
53960;BME280;39866;48.638;-2.020;2023-03-03T09:14:15;102382.19;;;11.01;54.11
53960;BME280;39866;48.638;-2.020;2023-03-03T09:16:49;102376.91;;;10.95;53.92
53960;BME280;39866;48.638;-2.020;2023-03-03T09:21:42;102388.47;;;10.84;55.08
53960;BME280;39866;48.638;-2.020;2023-03-03T09:24:19;102388.47;;;10.84;55.43
53960;BME280;39866;48.638;-2.020;2023-03-03T09:26:47;102381.25;;;11.14;54.95
53960;BME280;39866;48.638;-2.020;2023-03-03T09:31:44;102383.06;;;11.04;54.44
53960;BME280;39866;48.638;-2.020;2023-03-03T09:36:57;102391.03;;;11.15;54.92
53960;BME280;39866;48.638;-2.020;2023-03-03T09:39:26;102392.00;;;10.93;55.06
53960;BME280;39866;48.638;-2.020;2023-03-03T09:50:36;102390.81;;;11.52;54.07
53960;BME280;39866;48.638;-2.020;2023-03-03T09:56:24;102395.34;;;11.34;53.95
53960;BME280;39866;48.638;-2.020;2023-03-03T10:18:35;102399.88;;;11.20;53.93
53960;BME280;39866;48.638;-2.020;2023-03-03T10:21:09;102405.34;;;10.94;54.70
53960;BME280;39866;48.638;-2.020;2023-03-03T10:23:54;102397.38;;;10.77;55.11
53960;BME280;39866;48.638;-2.020;2023-03-03T10:26:37;102393.63;;;11.26;54.27
53960;BME280;39866;48.638;-2.020;2023-03-03T10:29:41;102398.69;;;11.72;53.47
53960;BME280;39866;48.638;-2.020;2023-03-03T10:32:38;102399.53;;;11.83;53.40
53960;BME280;39866;48.638;-2.020;2023-03-03T10:35:48;102410.31;;;11.61;53.85
53960;BME280;39866;48.638;-2.020;2023-03-03T10:40:51;102398.66;;;11.84;53.55
53960;BME280;39866;48.638;-2.020;2023-03-03T10:46:24;102404.00;;;11.76;53.94
53960;BME280;39866;48.638;-2.020;2023-03-03T10:57:03;102401.50;;;11.52;54.76
53960;BME280;39866;48.638;-2.020;2023-03-03T11:02:29;102405.84;;;11.65;54.30
53960;BME280;39866;48.638;-2.020;2023-03-03T11:07:41;102396.31;;;11.24;56.90
53960;BME280;39866;48.638;-2.020;2023-03-03T11:31:47;102396.13;;;11.55;54.76
53960;BME280;39866;48.638;-2.020;2023-03-03T11:34:55;102392.41;;;11.80;53.16
53960;BME280;39866;48.638;-2.020;2023-03-03T11:37:19;102390.59;;;11.79;53.04
53960;BME280;39866;48.638;-2.020;2023-03-03T11:39:48;102397.19;;;11.22;54.78
53960;BME280;39866;48.638;-2.020;2023-03-03T11:45:05;102392.84;;;11.04;55.88
53960;BME280;39866;48.638;-2.020;2023-03-03T11:47:42;102393.56;;;11.36;54.51
53960;BME280;39866;48.638;-2.020;2023-03-03T11:50:15;102393.44;;;11.58;53.51
53960;BME280;39866;48.638;-2.020;2023-03-03T11:55:36;102382.84;;;11.49;52.35
53960;BME280;39866;48.638;-2.020;2023-03-03T12:00:40;102385.28;;;11.85;51.39
53960;BME280;39866;48.638;-2.020;2023-03-03T12:06:24;102378.19;;;11.84;51.24
53960;BME280;39866;48.638;-2.020;2023-03-03T12:09:02;102380.19;;;11.43;51.81
53960;BME280;39866;48.638;-2.020;2023-03-03T12:14:19;102374.84;;;11.46;51.32
53960;BME280;39866;48.638;-2.020;2023-03-03T12:16:54;102373.16;;;11.32;51.35
53960;BME280;39866;48.638;-2.020;2023-03-03T12:22:00;102377.69;;;11.16;52.55
53960;BME280;39866;48.638;-2.020;2023-03-03T12:24:56;102387.41;;;11.27;52.38
53960;BME280;39866;48.638;-2.020;2023-03-03T12:27:38;102377.59;;;11.30;52.90
53960;BME280;39866;48.638;-2.020;2023-03-03T12:35:25;102372.31;;;11.27;52.38
53960;BME280;39866;48.638;-2.020;2023-03-03T12:49:00;102371.47;;;11.13;54.88
53960;BME280;39866;48.638;-2.020;2023-03-03T12:51:50;102354.56;;;11.14;55.95
53960;BME280;39866;48.638;-2.020;2023-03-03T12:54:38;102358.16;;;11.11;55.11
53960;BME280;39866;48.638;-2.020;2023-03-03T12:57:18;102352.75;;;11.22;53.92
53960;BME280;39866;48.638;-2.020;2023-03-03T13:02:47;102351.03;;;11.16;54.80
53960;BME280;39866;48.638;-2.020;2023-03-03T13:13:52;102344.72;;;11.30;55.97
53960;BME280;39866;48.638;-2.020;2023-03-03T13:16:28;102337.66;;;11.24;56.01
53960;BME280;39866;48.638;-2.020;2023-03-03T13:19:07;102342.94;;;11.29;55.25
53960;BME280;39866;48.638;-2.020;2023-03-03T13:21:50;102346.63;;;11.11;56.10
53960;BME280;39866;48.638;-2.020;2023-03-03T13:27:04;102336.88;;;11.07;55.51
53960;BME280;39866;48.638;-2.020;2023-03-03T13:32:21;102339.47;;;11.16;54.66
53960;BME280;39866;48.638;-2.020;2023-03-03T13:34:59;102326.19;;;11.11;56.12
53960;BME280;39866;48.638;-2.020;2023-03-03T13:37:29;102334.16;;;11.16;55.75
53960;BME280;39866;48.638;-2.020;2023-03-03T13:40:13;102337.81;;;10.95;55.88
53960;BME280;39866;48.638;-2.020;2023-03-03T13:42:54;102339.47;;;11.16;56.37
53960;BME280;39866;48.638;-2.020;2023-03-03T13:45:24;102329.63;;;11.29;56.71
53960;BME280;39866;48.638;-2.020;2023-03-03T13:50:42;102318.13;;;11.19;57.25
53960;BME280;39866;48.638;-2.020;2023-03-03T13:56:02;102334.16;;;11.16;57.59
53960;BME280;39866;48.638;-2.020;2023-03-03T13:58:51;102322.66;;;11.05;57.73
53960;BME280;39866;48.638;-2.020;2023-03-03T14:04:16;102323.91;;;11.81;56.72
53960;BME280;39866;48.638;-2.020;2023-03-03T14:06:56;102329.22;;;11.88;55.20
53960;BME280;39866;48.638;-2.020;2023-03-03T14:12:11;102337.97;;;12.00;54.26
53960;BME280;39866;48.638;-2.020;2023-03-03T14:14:51;102323.06;;;11.74;54.91
53960;BME280;39866;48.638;-2.020;2023-03-03T14:17:33;102324.41;;;12.23;53.83
53960;BME280;39866;48.638;-2.020;2023-03-03T14:20:23;102332.00;;;11.72;54.32
53960;BME280;39866;48.638;-2.020;2023-03-03T14:22:58;102334.75;;;11.55;54.39
53960;BME280;39866;48.638;-2.020;2023-03-03T14:25:25;102330.50;;;12.35;53.34
53960;BME280;39866;48.638;-2.020;2023-03-03T14:28:12;102327.81;;;12.38;52.58
53960;BME280;39866;48.638;-2.020;2023-03-03T14:30:41;102326.91;;;12.39;52.01
53960;BME280;39866;48.638;-2.020;2023-03-03T14:35:38;102311.47;;;12.64;51.47
53960;BME280;39866;48.638;-2.020;2023-03-03T14:40:35;102312.41;;;12.60;50.80
53960;BME280;39866;48.638;-2.020;2023-03-03T14:43:07;102316.09;;;12.53;50.72
53960;BME280;39866;48.638;-2.020;2023-03-03T14:45:43;102304.59;;;13.13;50.02
53960;BME280;39866;48.638;-2.020;2023-03-03T14:48:28;102305.63;;;13.63;48.83
53960;BME280;39866;48.638;-2.020;2023-03-03T14:50:59;102314.88;;;13.44;49.03
53960;BME280;39866;48.638;-2.020;2023-03-03T14:53:44;102318.06;;;13.69;48.03
53960;BME280;39866;48.638;-2.020;2023-03-03T14:58:46;102303.03;;;12.98;50.21
53960;BME280;39866;48.638;-2.020;2023-03-03T15:01:33;102303.94;;;12.99;50.29
53960;BME280;39866;48.638;-2.020;2023-03-03T15:06:55;102309.59;;;13.92;47.61
53960;BME280;39866;48.638;-2.020;2023-03-03T15:09:34;102311.66;;;13.17;48.45
53960;BME280;39866;48.638;-2.020;2023-03-03T15:12:25;102287.16;;;13.48;48.13
53960;BME280;39866;48.638;-2.020;2023-03-03T15:17:36;102312.75;;;13.66;48.53
53960;BME280;39866;48.638;-2.020;2023-03-03T15:25:40;102302.06;;;13.64;49.06
53960;BME280;39866;48.638;-2.020;2023-03-03T15:30:51;102316.50;;;13.55;49.47
53960;BME280;39866;48.638;-2.020;2023-03-03T15:33:28;102311.41;;;13.93;48.91
53960;BME280;39866;48.638;-2.020;2023-03-03T15:36:07;102318.88;;;13.72;49.01
53960;BME280;39866;48.638;-2.020;2023-03-03T15:38:58;102321.25;;;13.33;50.10
53960;BME280;39866;48.638;-2.020;2023-03-03T15:44:29;102335.41;;;13.42;50.29
53960;BME280;39866;48.638;-2.020;2023-03-03T15:50:18;102318.31;;;13.52;49.40
53960;BME280;39866;48.638;-2.020;2023-03-03T15:55:26;102329.53;;;13.13;49.84
53960;BME280;39866;48.638;-2.020;2023-03-03T15:58:26;102316.59;;;13.46;49.99
53960;BME280;39866;48.638;-2.020;2023-03-03T16:04:05;102316.28;;;13.06;49.68
53960;BME280;39866;48.638;-2.020;2023-03-03T16:11:42;102318.63;;;13.32;48.84
53960;BME280;39866;48.638;-2.020;2023-03-03T16:17:18;102319.47;;;13.34;48.60
53960;BME280;39866;48.638;-2.020;2023-03-03T16:20:08;102319.81;;;13.08;48.82
53960;BME280;39866;48.638;-2.020;2023-03-03T16:31:22;102327.91;;;13.65;47.46
53960;BME280;39866;48.638;-2.020;2023-03-03T16:40:02;102339.03;;;13.39;48.22
53960;BME280;39866;48.638;-2.020;2023-03-03T16:42:32;102332.78;;;13.38;47.83